Time;durP1;ratioP1;P1;durP2;ratioP2;P2;SDS_P1;SDS_P2;PMS_P1;PMS_P2;Temp;Humidity;BMP_temperature;BMP_pressure;BME280_temperature;BME280_humidity;BME280_pressure;Samples;Min_cycle;Max_cycle;Signal;HPM_P1;HPM_P2
2022/11/06 00:01:05;;;;;;;11.65;9.60;;;9.40;99.90;;;;;;4934791;29;20071;-75
2022/11/06 00:03:35;;;;;;;11.32;9.00;;;9.30;99.90;;;;;;4938304;28;20110;-75
2022/11/06 00:09:12;;;;;;;13.30;8.88;;;9.30;99.90;;;;;;4890518;29;20049;-75
2022/11/06 00:11:41;;;;;;;12.25;8.65;;;9.30;99.90;;;;;;4917947;29;20047;-75
2022/11/06 00:14:07;;;;;;;10.93;8.32;;;9.30;99.90;;;;;;4944716;29;20044;-75
2022/11/06 00:16:35;;;;;;;9.65;8.43;;;9.30;99.90;;;;;;4925694;29;20059;-75
2022/11/06 00:19:01;;;;;;;11.57;9.07;;;9.20;99.90;;;;;;4944226;29;20042;-75
2022/11/06 00:21:28;;;;;;;11.15;9.07;;;9.30;99.90;;;;;;4921581;29;20397;-75
2022/11/06 00:23:56;;;;;;;11.05;8.60;;;9.30;99.90;;;;;;4953171;28;20047;-75
2022/11/06 00:26:24;;;;;;;11.48;8.73;;;9.20;99.90;;;;;;4920879;29;20039;-75
2022/11/06 00:28:50;;;;;;;9.43;8.35;;;9.20;99.90;;;;;;4946229;29;20067;-75
2022/11/06 00:31:23;;;;;;;10.07;8.57;;;9.30;99.90;;;;;;4937031;28;20030;-76
2022/11/06 00:33:49;;;;;;;9.23;7.88;;;9.30;99.90;;;;;;5000344;28;20480;-76
2022/11/06 00:36:23;;;;;;;11.77;8.10;;;9.30;99.90;;;;;;5008195;28;20504;-75
2022/11/06 00:38:54;;;;;;;11.80;8.75;;;9.30;99.90;;;;;;4997844;28;20078;-75
2022/11/06 00:41:20;;;;;;;12.65;8.60;;;9.30;99.90;;;;;;4977486;28;20039;-76
2022/11/06 00:43:51;;;;;;;9.43;7.97;;;9.30;99.90;;;;;;4971654;28;20388;-75
2022/11/06 00:46:18;;;;;;;9.82;8.15;;;9.20;99.90;;;;;;4959863;28;20038;-76
2022/11/06 00:48:44;;;;;;;12.23;8.48;;;9.30;99.90;;;;;;4972355;28;20054;-75
2022/11/06 00:51:15;;;;;;;11.30;7.72;;;9.30;99.90;;;;;;4961946;28;20038;-76
2022/11/06 00:53:42;;;;;;;9.95;7.93;;;9.30;99.90;;;;;;4983108;28;20084;-75
2022/11/06 00:56:12;;;;;;;10.35;7.90;;;9.30;99.90;;;;;;4947420;28;20037;-76
2022/11/06 00:58:39;;;;;;;14.57;8.80;;;9.30;99.90;;;;;;4991124;28;20058;-76
2022/11/06 01:01:18;;;;;;;12.07;8.57;;;9.30;99.90;;;;;;4972487;28;20559;-75
2022/11/06 01:03:47;;;;;;;14.43;9.63;;;9.30;99.90;;;;;;4966187;28;20039;-75
2022/11/06 01:06:19;;;;;;;12.88;9.80;;;9.20;99.90;;;;;;4969820;28;20074;-75
2022/11/06 01:08:46;;;;;;;15.27;10.00;;;9.20;99.90;;;;;;4975408;28;20039;-75
2022/11/06 01:11:21;;;;;;;12.77;9.90;;;9.10;99.90;;;;;;4978038;28;20399;-75
2022/11/06 01:13:50;;;;;;;13.35;9.65;;;9.10;99.90;;;;;;4949973;28;20401;-75
2022/11/06 01:16:16;;;;;;;14.00;10.27;;;9.00;99.90;;;;;;4995178;28;20077;-75
2022/11/06 01:18:43;;;;;;;15.65;10.57;;;9.00;99.90;;;;;;4962523;28;20114;-75
2022/11/06 01:21:12;;;;;;;14.25;10.23;;;9.00;99.90;;;;;;4988303;28;20081;-75
2022/11/06 01:23:38;;;;;;;14.52;10.65;;;9.00;99.90;;;;;;4970069;28;20062;-75
2022/11/06 01:26:06;;;;;;;16.55;10.73;;;8.90;99.90;;;;;;4962304;28;20030;-75
2022/11/06 01:28:31;;;;;;;16.25;10.52;;;8.90;99.90;;;;;;4974984;28;20093;-75
2022/11/06 01:31:05;;;;;;;15.07;10.85;;;8.90;99.90;;;;;;4951424;28;20513;-75
2022/11/06 01:33:31;;;;;;;18.58;11.27;;;8.80;99.90;;;;;;4971671;28;20047;-75
2022/11/06 01:35:57;;;;;;;16.73;11.07;;;8.80;99.90;;;;;;4987448;28;20089;-75
2022/11/06 01:38:22;;;;;;;16.70;11.60;;;8.80;99.90;;;;;;4978534;28;20058;-75
2022/11/06 01:40:49;;;;;;;16.10;11.20;;;8.80;99.90;;;;;;4961337;28;20042;-75
2022/11/06 01:43:23;;;;;;;14.02;10.80;;;8.90;99.90;;;;;;4948239;28;20039;-76
2022/11/06 01:45:54;;;;;;;16.85;11.85;;;8.80;99.90;;;;;;4955375;28;20031;-75
2022/11/06 01:48:24;;;;;;;18.48;11.98;;;8.80;99.90;;;;;;4962533;28;20116;-75
2022/11/06 01:50:54;;;;;;;19.40;12.45;;;8.80;99.90;;;;;;4959572;28;20408;-75
2022/11/06 01:53:21;;;;;;;15.65;11.70;;;8.80;99.90;;;;;;4988375;28;20042;-75
2022/11/06 01:55:50;;;;;;;17.55;12.38;;;8.80;99.90;;;;;;4985534;28;20043;-75
2022/11/06 01:58:19;;;;;;;13.77;11.43;;;8.80;99.90;;;;;;4960847;28;20042;-76
2022/11/06 02:00:45;;;;;;;15.38;11.82;;;8.80;99.90;;;;;;4991249;28;20043;-75
2022/11/06 02:03:12;;;;;;;17.70;12.38;;;8.80;99.90;;;;;;4993121;28;20045;-75
2022/11/06 02:05:39;;;;;;;14.32;12.02;;;8.70;99.90;;;;;;4955286;28;20039;-76
2022/11/06 02:08:07;;;;;;;17.00;12.13;;;8.70;99.90;;;;;;4969836;28;20045;-75
2022/11/06 02:10:33;;;;;;;14.90;11.68;;;8.70;99.90;;;;;;4976034;28;20039;-75
2022/11/06 02:13:16;;;;;;;17.88;12.27;;;8.70;99.90;;;;;;4971206;28;20034;-75
2022/11/06 02:16:19;;;;;;;16.05;12.55;;;8.70;99.90;;;;;;4971604;28;20057;-75
2022/11/06 02:18:57;;;;;;;14.63;12.38;;;8.70;99.90;;;;;;4994569;28;20548;-75
2022/11/06 02:21:29;;;;;;;16.40;11.70;;;8.70;99.90;;;;;;4969517;28;20050;-76
2022/11/06 02:24:29;;;;;;;18.55;12.40;;;8.70;99.90;;;;;;4955120;28;20078;-76
2022/11/06 02:27:12;;;;;;;17.35;12.73;;;8.70;99.90;;;;;;4970716;28;20039;-75
2022/11/06 02:30:01;;;;;;;14.95;12.30;;;8.70;99.90;;;;;;4972425;28;20047;-75
2022/11/06 02:32:46;;;;;;;16.02;13.07;;;8.70;99.90;;;;;;4985631;28;20054;-75
2022/11/06 02:35:33;;;;;;;17.02;11.98;;;8.70;99.90;;;;;;4955175;28;20046;-75
2022/11/06 02:38:04;;;;;;;16.83;11.75;;;8.70;99.90;;;;;;4965254;28;20365;-75
2022/11/06 02:40:33;;;;;;;15.23;11.93;;;8.70;99.90;;;;;;4990959;28;20506;-75
2022/11/06 02:43:03;;;;;;;15.90;11.50;;;8.70;99.90;;;;;;4990451;28;20077;-75
2022/11/06 02:45:32;;;;;;;16.50;11.80;;;8.70;99.90;;;;;;4986174;28;20038;-75
2022/11/06 02:48:00;;;;;;;19.02;11.90;;;8.70;99.90;;;;;;4954806;28;20042;-75
2022/11/06 02:50:38;;;;;;;15.23;11.15;;;8.70;99.90;;;;;;4957965;28;20046;-75
2022/11/06 02:53:06;;;;;;;18.70;11.07;;;8.70;99.90;;;;;;4950168;28;20493;-76
2022/11/06 02:55:39;;;;;;;13.75;11.10;;;8.70;99.90;;;;;;4955017;29;20544;-75
2022/11/06 02:58:14;;;;;;;14.63;11.77;;;8.70;99.90;;;;;;4987662;28;20045;-75
2022/11/06 03:00:42;;;;;;;13.63;11.52;;;8.70;99.90;;;;;;4969113;28;20177;-74
2022/11/06 03:03:18;;;;;;;17.60;10.80;;;8.70;99.90;;;;;;4962785;28;20130;-75
2022/11/06 03:05:57;;;;;;;14.23;10.00;;;8.70;99.90;;;;;;4954871;29;20498;-75
2022/11/06 03:08:29;;;;;;;17.05;11.07;;;8.70;99.90;;;;;;4951971;28;20521;-75
2022/11/06 03:11:05;;;;;;;19.67;10.65;;;8.70;99.90;;;;;;5000876;28;20042;-75
2022/11/06 03:13:40;;;;;;;15.38;10.57;;;8.70;99.90;;;;;;4938761;29;20050;-74
2022/11/06 03:16:25;;;;;;;14.98;9.43;;;8.70;99.90;;;;;;4953855;28;20050;-76
2022/11/06 03:19:02;;;;;;;12.68;10.15;;;8.80;99.90;;;;;;4971826;28;20101;-75
2022/11/06 03:21:42;;;;;;;12.82;10.52;;;8.70;99.90;;;;;;4977063;28;20053;-75
2022/11/06 03:24:18;;;;;;;12.57;10.15;;;8.80;99.90;;;;;;4981361;28;20050;-75
2022/11/06 03:26:51;;;;;;;17.10;11.10;;;8.70;99.90;;;;;;4965722;28;20031;-75
2022/11/06 03:29:30;;;;;;;14.13;10.18;;;8.70;99.90;;;;;;4957242;28;20045;-75
2022/11/06 03:32:07;;;;;;;18.23;10.27;;;8.70;99.90;;;;;;4997723;28;20118;-76
2022/11/06 03:35:01;;;;;;;16.58;11.10;;;8.70;99.90;;;;;;4977293;28;20466;-76
2022/11/06 03:37:33;;;;;;;15.80;10.98;;;8.70;99.90;;;;;;4968498;28;20477;-76
2022/11/06 03:40:03;;;;;;;15.55;10.52;;;8.70;99.90;;;;;;4966445;28;20509;-76
2022/11/06 03:42:29;;;;;;;15.40;10.38;;;8.70;99.90;;;;;;4977323;28;20049;-75
2022/11/06 03:45:01;;;;;;;18.23;11.52;;;8.70;99.90;;;;;;4984928;28;20384;-74
2022/11/06 03:47:40;;;;;;;13.85;10.45;;;8.70;99.90;;;;;;4992661;28;20085;-75
2022/11/06 03:50:25;;;;;;;13.98;10.10;;;8.70;99.90;;;;;;4987149;28;20393;-76
2022/11/06 03:53:11;;;;;;;21.83;11.40;;;8.70;99.90;;;;;;4976912;28;20046;-75
2022/11/06 03:55:44;;;;;;;14.20;10.80;;;8.70;99.90;;;;;;4973399;28;20552;-75
2022/11/06 03:58:11;;;;;;;;;;;8.70;99.90;;;;;;4973174;28;20403;-75
2022/11/06 04:00:40;;;;;;;16.45;10.90;;;8.70;99.90;;;;;;4976712;28;19976;-75
2022/11/06 04:03:16;;;;;;;16.63;9.98;;;8.70;99.90;;;;;;4975889;28;20382;-75
2022/11/06 04:05:47;;;;;;;19.27;10.57;;;8.70;99.90;;;;;;4957224;28;20033;-75
2022/11/06 04:14:06;;;;;;;20.50;11.38;;;8.70;99.90;;;;;;4916079;29;20054;-76
2022/11/06 04:16:35;;;;;;;18.15;11.02;;;8.70;99.90;;;;;;4967669;28;20046;-76
2022/11/06 04:19:01;;;;;;;17.75;10.55;;;8.70;99.90;;;;;;4994823;28;20050;-75
2022/11/06 04:21:38;;;;;;;19.23;10.60;;;8.70;99.90;;;;;;4964541;28;20392;-75
2022/11/06 04:27:15;;;;;;;14.05;9.13;;;8.70;99.90;;;;;;4999678;28;20053;-75
2022/11/06 04:30:00;;;;;;;17.90;10.55;;;8.70;99.90;;;;;;4962875;28;20038;-75
2022/11/06 04:33:01;;;;;;;15.20;10.18;;;8.70;99.90;;;;;;4988732;28;20489;-75
2022/11/06 04:35:42;;;;;;;16.95;9.88;;;8.70;99.90;;;;;;4922714;28;20104;-75
2022/11/06 04:38:19;;;;;;;16.67;10.80;;;8.60;99.90;;;;;;4991718;28;20128;-75
2022/11/06 04:40:53;;;;;;;17.65;10.10;;;8.60;99.90;;;;;;4991856;28;20038;-75
2022/11/06 04:43:28;;;;;;;16.25;10.13;;;8.60;99.90;;;;;;4962102;28;20443;-75
2022/11/06 04:45:57;;;;;;;16.90;9.13;;;8.60;99.90;;;;;;4978124;28;20034;-74
2022/11/06 04:48:23;;;;;;;17.10;10.48;;;8.60;99.90;;;;;;4967345;28;20467;-75
2022/11/06 04:50:53;;;;;;;22.05;10.65;;;8.60;99.90;;;;;;4991595;28;20049;-75
2022/11/06 04:53:25;;;;;;;18.38;10.18;;;8.60;99.90;;;;;;4987188;28;20038;-75
2022/11/06 04:55:59;;;;;;;17.65;10.10;;;8.60;99.90;;;;;;4967644;28;20450;-75
2022/11/06 04:58:24;;;;;;;19.90;10.55;;;8.60;99.90;;;;;;4978917;28;20047;-75
2022/11/06 05:00:51;;;;;;;13.73;9.45;;;8.60;99.90;;;;;;4955695;28;20409;-75
2022/11/06 05:03:17;;;;;;;18.00;9.15;;;8.60;99.90;;;;;;4979449;28;20433;-75
2022/11/06 05:05:43;;;;;;;16.65;10.32;;;8.60;99.90;;;;;;4985152;28;20061;-75
2022/11/06 05:08:13;;;;;;;13.32;8.25;;;8.60;99.90;;;;;;4970944;28;20042;-75
2022/11/06 05:10:39;;;;;;;14.68;9.23;;;8.70;99.90;;;;;;4943797;28;20227;-75
2022/11/06 05:13:05;;;;;;;17.92;9.20;;;8.60;99.90;;;;;;4971337;28;20038;-75
2022/11/06 05:15:31;;;;;;;12.95;8.27;;;8.60;99.90;;;;;;4967320;28;20129;-75
2022/11/06 05:17:57;;;;;;;15.05;8.60;;;8.70;99.90;;;;;;4969709;28;20046;-75
2022/11/06 05:20:23;;;;;;;12.95;8.13;;;8.60;99.90;;;;;;4995306;28;20082;-75
2022/11/06 05:22:59;;;;;;;14.25;7.47;;;8.60;99.90;;;;;;4979064;28;20469;-74
2022/11/06 05:25:35;;;;;;;13.10;6.95;;;8.60;99.90;;;;;;4963493;28;20500;-75
2022/11/06 05:28:05;;;;;;;16.08;7.80;;;8.60;99.90;;;;;;4978529;28;20684;-75
2022/11/06 05:30:31;;;;;;;11.75;7.15;;;8.60;99.90;;;;;;4959900;28;20078;-74
2022/11/06 05:32:57;;;;;;;13.05;7.03;;;8.60;99.90;;;;;;4998995;28;20521;-75
2022/11/06 05:35:23;;;;;;;12.48;7.35;;;8.60;99.90;;;;;;4985094;28;20043;-75
2022/11/06 05:37:48;;;;;;;10.80;7.05;;;8.60;99.90;;;;;;4936182;29;20493;-75
2022/11/06 05:40:14;;;;;;;13.25;7.43;;;8.60;99.90;;;;;;4971746;28;20114;-75
2022/11/06 05:42:42;;;;;;;13.73;6.90;;;8.60;99.90;;;;;;4995980;28;20062;-74
2022/11/06 05:45:08;;;;;;;11.20;6.93;;;8.60;99.90;;;;;;4999079;28;20039;-74
2022/11/06 05:47:34;;;;;;;10.77;6.13;;;8.60;99.90;;;;;;4959970;28;20035;-74
2022/11/06 05:50:00;;;;;;;12.32;6.47;;;8.60;99.90;;;;;;4983000;28;20365;-74
2022/11/06 05:52:25;;;;;;;11.13;6.28;;;8.70;99.90;;;;;;4957263;28;20042;-74
2022/11/06 05:54:51;;;;;;;12.95;6.43;;;8.70;99.90;;;;;;4998918;28;20030;-74
2022/11/06 05:57:17;;;;;;;10.35;6.30;;;8.70;99.90;;;;;;4998763;28;20046;-74
2022/11/06 05:59:43;;;;;;;12.10;5.93;;;8.70;99.90;;;;;;4993063;28;20418;-74
2022/11/06 06:02:09;;;;;;;9.27;5.65;;;8.70;99.90;;;;;;4979161;28;20035;-74
2022/11/06 06:04:34;;;;;;;11.75;5.40;;;8.70;99.90;;;;;;4986293;28;20035;-74
2022/11/06 06:07:00;;;;;;;10.95;6.20;;;8.70;99.90;;;;;;4978757;28;20057;-74
2022/11/06 06:09:26;;;;;;;10.13;5.82;;;8.70;99.90;;;;;;4994705;28;20041;-74
2022/11/06 06:11:52;;;;;;;15.90;6.30;;;8.70;99.90;;;;;;4992630;28;20065;-74
2022/11/06 06:14:19;;;;;;;8.95;5.57;;;8.70;99.90;;;;;;4962230;28;20047;-74
2022/11/06 06:16:44;;;;;;;13.40;5.47;;;8.70;99.90;;;;;;4975712;28;20041;-74
2022/11/06 06:19:10;;;;;;;7.68;5.20;;;8.80;99.90;;;;;;4990092;28;20401;-74
2022/11/06 06:21:36;;;;;;;10.57;5.50;;;8.80;99.90;;;;;;4998957;28;20030;-74
2022/11/06 06:24:02;;;;;;;10.50;5.35;;;8.80;99.90;;;;;;4990389;28;20584;-74
2022/11/06 06:26:28;;;;;;;11.68;6.05;;;8.80;99.90;;;;;;4955742;28;20035;-74
2022/11/06 06:28:54;;;;;;;8.52;5.25;;;8.80;99.90;;;;;;4959087;28;20486;-74
2022/11/06 06:31:20;;;;;;;11.02;4.88;;;8.80;99.90;;;;;;4991327;28;20051;-74
2022/11/06 06:33:45;;;;;;;14.40;5.82;;;8.80;99.90;;;;;;5010778;28;20113;-74
2022/11/06 06:36:11;;;;;;;10.07;4.57;;;8.80;99.90;;;;;;5003170;28;20481;-75
2022/11/06 06:38:37;;;;;;;9.52;4.72;;;8.90;99.90;;;;;;4983018;28;20039;-74
2022/11/06 06:41:04;;;;;;;10.55;5.05;;;8.90;99.90;;;;;;4998855;28;20047;-74
2022/11/06 06:43:30;;;;;;;11.05;5.00;;;8.90;99.90;;;;;;4971316;28;20061;-74
2022/11/06 06:45:59;;;;;;;9.63;4.60;;;8.90;99.90;;;;;;4958360;28;20038;-74
2022/11/06 06:48:26;;;;;;;10.55;4.97;;;8.90;99.90;;;;;;4981481;28;20122;-74
2022/11/06 06:50:51;;;;;;;8.75;4.57;;;8.90;99.90;;;;;;4966023;28;20088;-74
2022/11/06 06:53:17;;;;;;;11.70;4.60;;;9.00;99.90;;;;;;4992028;28;20046;-74
2022/11/06 06:55:42;;;;;;;10.55;4.65;;;9.00;99.90;;;;;;4960290;28;20043;-74
2022/11/06 06:58:09;;;;;;;10.60;4.78;;;9.00;99.90;;;;;;4981459;28;20050;-74
2022/11/06 07:00:35;;;;;;;13.73;4.80;;;9.00;99.90;;;;;;4978339;28;20037;-74
2022/11/06 07:03:01;;;;;;;9.23;4.40;;;9.00;99.90;;;;;;4975020;28;20039;-74
2022/11/06 07:05:26;;;;;;;8.73;4.70;;;9.00;99.90;;;;;;4982340;28;20078;-74
2022/11/06 07:07:52;;;;;;;8.75;4.80;;;9.10;99.90;;;;;;4974695;28;20581;-74
2022/11/06 07:10:18;;;;;;;7.57;4.43;;;9.10;99.90;;;;;;4995788;28;20043;-74
2022/11/06 07:12:43;;;;;;;11.75;4.43;;;9.10;99.90;;;;;;4987290;28;20122;-74
2022/11/06 07:15:10;;;;;;;7.63;3.97;;;9.10;99.90;;;;;;5009710;28;20050;-74
2022/11/06 07:17:35;;;;;;;8.35;4.55;;;9.10;99.90;;;;;;4954946;28;20089;-74
2022/11/06 07:20:02;;;;;;;8.73;4.38;;;9.10;99.90;;;;;;4987267;28;20400;-74
2022/11/06 07:22:28;;;;;;;7.00;4.35;;;9.20;99.90;;;;;;4982956;28;20042;-74
2022/11/06 07:24:53;;;;;;;8.20;4.38;;;9.20;99.90;;;;;;5001516;28;20388;-74
2022/11/06 07:27:19;;;;;;;8.07;3.90;;;9.20;99.90;;;;;;5009322;28;20038;-74
2022/11/06 07:29:45;;;;;;;8.95;3.85;;;9.20;99.90;;;;;;5002052;28;20416;-74
2022/11/06 07:32:10;;;;;;;6.47;4.10;;;9.30;99.90;;;;;;4990138;28;20405;-74
2022/11/06 07:34:39;;;;;;;8.35;4.30;;;9.30;99.90;;;;;;4993182;28;20543;-74
2022/11/06 07:37:05;;;;;;;8.10;4.18;;;9.30;99.90;;;;;;4972099;28;20038;-74
2022/11/06 07:39:31;;;;;;;8.27;3.63;;;9.40;99.90;;;;;;5000071;28;20078;-74
2022/11/06 07:41:57;;;;;;;8.68;4.15;;;9.40;99.90;;;;;;4967680;28;20496;-74
2022/11/06 07:44:22;;;;;;;9.00;4.07;;;9.40;99.90;;;;;;4979844;28;20043;-74
2022/11/06 07:46:48;;;;;;;7.78;4.30;;;9.40;99.90;;;;;;4957233;28;20031;-74
2022/11/06 07:49:15;;;;;;;8.75;3.95;;;9.40;99.90;;;;;;4971297;28;20035;-73
2022/11/06 07:51:41;;;;;;;6.47;3.50;;;9.40;99.90;;;;;;4994305;28;20555;-73
2022/11/06 07:54:07;;;;;;;9.15;3.80;;;9.50;99.90;;;;;;5008766;28;20038;-74
2022/11/06 07:56:33;;;;;;;8.30;3.60;;;9.50;99.90;;;;;;4975115;28;20394;-73
2022/11/06 07:58:58;;;;;;;8.65;3.92;;;9.50;99.90;;;;;;4958896;28;20059;-74
2022/11/06 08:01:24;;;;;;;7.28;3.65;;;9.50;99.90;;;;;;4989005;28;20122;-74
2022/11/06 08:03:50;;;;;;;8.38;3.85;;;9.50;99.90;;;;;;4976987;28;20043;-74
2022/11/06 08:06:15;;;;;;;5.70;3.55;;;9.60;99.90;;;;;;4995891;28;20038;-73
2022/11/06 08:08:41;;;;;;;8.18;3.92;;;9.60;99.90;;;;;;4989450;28;20035;-74
2022/11/06 08:11:09;;;;;;;6.82;3.25;;;9.60;99.90;;;;;;4979469;28;20098;-73
2022/11/06 08:13:35;;;;;;;10.80;3.55;;;9.60;99.90;;;;;;4972151;28;20509;-74
2022/11/06 08:16:13;;;;;;;8.27;3.22;;;9.60;99.90;;;;;;4985717;28;20039;-74
2022/11/06 08:18:39;;;;;;;8.13;3.78;;;9.60;99.90;;;;;;4971557;28;20371;-74
2022/11/06 08:21:06;;;;;;;6.30;3.30;;;9.60;99.90;;;;;;4975065;28;20078;-74
2022/11/06 08:23:32;;;;;;;8.77;3.40;;;9.60;99.90;;;;;;4984268;28;20094;-74
2022/11/06 08:26:01;;;;;;;7.22;3.65;;;9.60;99.90;;;;;;4967341;28;20041;-74
2022/11/06 08:28:27;;;;;;;6.35;3.30;;;9.60;99.90;;;;;;4936987;29;20039;-74
2022/11/06 08:30:53;;;;;;;8.50;3.38;;;9.70;99.90;;;;;;4979343;28;20097;-74
2022/11/06 08:33:20;;;;;;;5.32;3.03;;;9.70;99.90;;;;;;4981978;28;20425;-74
2022/11/06 08:35:46;;;;;;;8.32;3.65;;;9.60;99.90;;;;;;4949476;28;20124;-74
2022/11/06 08:38:12;;;;;;;7.35;2.88;;;9.70;99.90;;;;;;4980344;28;20035;-74
2022/11/06 08:40:38;;;;;;;6.93;3.22;;;9.80;99.90;;;;;;4964846;28;20043;-74
2022/11/06 08:43:08;;;;;;;8.02;3.00;;;9.80;99.90;;;;;;4967900;28;20090;-74
2022/11/06 08:45:39;;;;;;;6.97;3.17;;;9.90;99.90;;;;;;4976015;28;20085;-74
2022/11/06 08:48:06;;;;;;;8.75;3.67;;;9.90;99.90;;;;;;5007823;28;20121;-74
2022/11/06 08:50:33;;;;;;;8.18;3.33;;;10.00;99.90;;;;;;4993280;28;20043;-74
2022/11/06 08:53:02;;;;;;;7.95;3.65;;;10.00;99.90;;;;;;4952774;28;20051;-74
2022/11/06 08:55:32;;;;;;;8.80;3.90;;;10.10;99.90;;;;;;4936959;29;20043;-74
2022/11/06 08:57:58;;;;;;;8.07;4.00;;;10.10;99.90;;;;;;4952637;28;20049;-74
2022/11/06 09:00:24;;;;;;;6.82;3.38;;;10.10;99.90;;;;;;4936749;29;20031;-74
2022/11/06 09:02:49;;;;;;;9.10;3.67;;;10.20;99.90;;;;;;4952676;29;20051;-74
2022/11/06 09:05:15;;;;;;;6.82;3.13;;;10.20;99.90;;;;;;4975711;28;20034;-74
2022/11/06 09:07:40;;;;;;;6.97;3.55;;;10.30;99.90;;;;;;4991465;28;20046;-74
2022/11/06 09:10:06;;;;;;;19.85;3.50;;;10.40;99.90;;;;;;4980902;28;20053;-74
2022/11/06 09:12:32;;;;;;;7.32;3.10;;;10.40;99.90;;;;;;4972056;28;20066;-74
2022/11/06 09:14:58;;;;;;;6.97;3.03;;;10.40;99.90;;;;;;4954266;28;20038;-75
2022/11/06 09:17:23;;;;;;;8.60;3.30;;;10.40;99.90;;;;;;4969791;28;20046;-74
2022/11/06 09:19:50;;;;;;;7.38;2.92;;;10.40;99.90;;;;;;4963442;28;20062;-75
2022/11/06 09:22:15;;;;;;;7.72;3.10;;;10.40;99.90;;;;;;4943819;28;20118;-75
2022/11/06 09:24:41;;;;;;;7.72;3.15;;;10.30;99.90;;;;;;4966140;28;20134;-75
2022/11/06 09:27:07;;;;;;;6.28;3.17;;;10.30;99.90;;;;;;4960979;28;20030;-75
2022/11/06 09:29:32;;;;;;;6.35;3.67;;;10.40;99.90;;;;;;5000149;28;20415;-75
2022/11/06 09:31:58;;;;;;;8.20;2.83;;;10.40;99.90;;;;;;4989358;28;20664;-74
2022/11/06 09:34:23;;;;;;;7.25;3.22;;;10.50;99.90;;;;;;4991509;28;20054;-74
2022/11/06 09:36:49;;;;;;;4.65;2.60;;;10.60;99.90;;;;;;4995527;28;20034;-75
2022/11/06 09:39:15;;;;;;;6.65;3.45;;;10.70;99.90;;;;;;5004615;28;20489;-75
2022/11/06 09:42:06;;;;;;;5.70;2.60;;;10.70;99.90;;;;;;4977175;28;20043;-75
2022/11/06 09:45:01;;;;;;;5.88;2.38;;;10.70;99.90;;;;;;4947885;28;20046;-75
2022/11/06 09:47:31;;;;;;;6.95;3.20;;;10.80;99.90;;;;;;4992964;28;20098;-75
2022/11/06 09:49:57;;;;;;;11.15;3.38;;;10.90;99.90;;;;;;4949316;28;20047;-75
2022/11/06 09:52:39;;;;;;;5.80;2.80;;;11.00;99.90;;;;;;4981376;28;20049;-74
2022/11/06 09:55:22;;;;;;;4.53;2.78;;;11.00;99.90;;;;;;4981800;28;20414;-74
2022/11/06 09:57:58;;;;;;;5.82;2.40;;;11.10;99.90;;;;;;4986442;28;20124;-74
2022/11/06 10:00:24;;;;;;;6.05;2.42;;;11.10;99.90;;;;;;4994505;28;20038;-74
2022/11/06 10:03:39;;;;;;;5.57;2.45;;;11.20;99.90;;;;;;4971463;28;20054;-74
2022/11/06 10:06:05;;;;;;;6.82;2.75;;;11.10;99.90;;;;;;5001698;28;20600;-74
2022/11/06 10:08:30;;;;;;;7.85;2.92;;;11.10;99.90;;;;;;4994249;28;20046;-74
2022/11/06 10:11:14;;;;;;;6.03;2.30;;;11.00;99.90;;;;;;4978223;28;20555;-74
2022/11/06 10:14:04;;;;;;;;;;;11.10;99.90;;;;;;4985071;28;20042;-74
2022/11/06 10:16:41;;;;;;;4.93;2.40;;;11.10;99.90;;;;;;4994464;28;19918;-74
2022/11/06 10:19:21;;;;;;;4.90;2.20;;;11.10;99.90;;;;;;4974766;28;20039;-74
2022/11/06 10:21:48;;;;;;;6.85;2.53;;;11.10;99.90;;;;;;4972644;28;20118;-74
2022/11/06 10:24:29;;;;;;;8.27;2.55;;;11.10;99.90;;;;;;4955783;29;20048;-74
2022/11/06 10:26:55;;;;;;;4.63;1.88;;;11.00;99.90;;;;;;4942848;28;20118;-74
2022/11/06 10:29:30;;;;;;;5.10;2.22;;;11.00;99.90;;;;;;4984138;28;20039;-75
2022/11/06 10:31:55;;;;;;;7.05;2.65;;;11.00;99.90;;;;;;4987016;28;20081;-75
2022/11/06 10:34:30;;;;;;;5.53;2.53;;;10.90;99.90;;;;;;4973669;28;20081;-74
2022/11/06 10:37:21;;;;;;;5.43;2.35;;;11.10;99.90;;;;;;4988405;28;20043;-75
2022/11/06 10:39:48;;;;;;;4.97;2.47;;;11.00;99.90;;;;;;4948146;28;20061;-75
2022/11/06 10:42:17;;;;;;;3.55;2.00;;;11.10;99.90;;;;;;5010436;28;20047;-75
2022/11/06 10:44:55;;;;;;;6.47;2.58;;;11.20;99.90;;;;;;5010304;28;20038;-75
2022/11/06 10:47:31;;;;;;;7.32;2.65;;;11.40;99.90;;;;;;4991420;28;20081;-74
2022/11/06 10:49:59;;;;;;;4.97;2.65;;;11.50;99.90;;;;;;4952913;28;20314;-74
2022/11/06 10:52:24;;;;;;;5.07;2.00;;;11.60;99.90;;;;;;4988277;28;20081;-74
2022/11/06 10:55:33;;;;;;;6.15;2.38;;;11.70;99.90;;;;;;4989276;28;20477;-74
2022/11/06 10:58:11;;;;;;;6.50;2.10;;;11.80;99.90;;;;;;4976864;28;20034;-74
2022/11/06 11:00:37;;;;;;;5.78;2.15;;;11.90;99.90;;;;;;4994121;28;20445;-75
2022/11/06 11:03:13;;;;;;;6.97;2.10;;;11.90;99.90;;;;;;4983361;28;20409;-74
2022/11/06 11:05:41;;;;;;;6.75;1.80;;;11.90;99.90;;;;;;4951821;28;20440;-75
2022/11/06 11:08:30;;;;;;;6.43;2.35;;;11.90;99.90;;;;;;4978734;28;20031;-76
2022/11/06 11:11:31;;;;;;;3.50;1.70;;;11.90;99.90;;;;;;4952529;28;20101;-75
2022/11/06 11:14:00;;;;;;;5.38;1.98;;;11.90;99.90;;;;;;4966063;28;20065;-75
2022/11/06 11:16:36;;;;;;;6.07;2.38;;;11.90;99.90;;;;;;4946897;28;20039;-75
2022/11/06 11:19:31;;;;;;;4.43;1.90;;;11.90;99.90;;;;;;4965870;28;20045;-75
2022/11/06 11:21:59;;;;;;;5.78;2.00;;;11.90;99.90;;;;;;4951558;28;20517;-75
2022/11/06 11:24:25;;;;;;;4.80;2.00;;;11.80;99.90;;;;;;4966249;28;20050;-74
2022/11/06 11:26:55;;;;;;;5.65;1.60;;;11.80;99.90;;;;;;4966218;28;20105;-74
2022/11/06 11:29:28;;;;;;;4.35;1.92;;;11.80;99.90;;;;;;4965597;28;20055;-75
2022/11/06 11:31:56;;;;;;;3.80;1.92;;;11.70;99.90;;;;;;4991230;28;20034;-75
2022/11/06 11:34:28;;;;;;;4.35;1.58;;;11.70;99.90;;;;;;4985308;28;21884;-76
2022/11/06 11:37:05;;;;;;;5.88;1.80;;;11.60;99.90;;;;;;4958816;28;20098;-76
2022/11/06 11:39:36;;;;;;;4.40;1.80;;;11.60;99.90;;;;;;4962252;28;20046;-76
2022/11/06 11:42:29;;;;;;;4.28;1.70;;;11.60;99.90;;;;;;4971681;28;20546;-75
2022/11/06 11:45:13;;;;;;;5.00;2.05;;;11.50;99.90;;;;;;4971989;28;20043;-75
2022/11/06 11:47:42;;;;;;;4.18;1.65;;;11.60;99.90;;;;;;4992330;28;20576;-76
2022/11/06 11:50:26;;;;;;;3.90;1.75;;;11.60;99.90;;;;;;4979360;28;20054;-76
2022/11/06 11:53:15;;;;;;;6.63;1.90;;;11.60;99.90;;;;;;4979009;28;20046;-76
2022/11/06 11:55:44;;;;;;;9.20;2.17;;;11.60;99.90;;;;;;4965238;28;20055;-75
2022/11/06 11:58:29;;;;;;;6.20;1.80;;;11.60;99.90;;;;;;4995912;28;20054;-76
2022/11/06 12:01:03;;;;;;;5.85;1.77;;;11.70;99.90;;;;;;4986846;28;20046;-76
2022/11/06 12:03:36;;;;;;;5.22;1.73;;;11.80;99.90;;;;;;5001762;28;20039;-76
2022/11/06 12:06:12;;;;;;;2.50;1.60;;;11.80;99.90;;;;;;4963420;28;20078;-76
2022/11/06 12:08:44;;;;;;;5.10;1.73;;;11.90;99.90;;;;;;4982020;28;20031;-75
2022/11/06 12:11:15;;;;;;;6.75;1.83;;;11.90;99.90;;;;;;4975760;28;20039;-76
2022/11/06 12:13:41;;;;;;;4.88;1.77;;;12.00;99.90;;;;;;4978043;28;20038;-76
2022/11/06 12:16:14;;;;;;;6.18;2.15;;;12.00;99.90;;;;;;4988359;28;20046;-76
2022/11/06 12:18:44;;;;;;;4.18;2.00;;;12.10;99.90;;;;;;4965414;28;20061;-76
2022/11/06 12:21:20;;;;;;;5.03;1.75;;;12.10;99.90;;;;;;4983417;28;20034;-76
2022/11/06 12:24:19;;;;;;;5.65;2.00;;;12.10;99.90;;;;;;4964880;28;20130;-76
2022/11/06 12:26:53;;;;;;;5.60;2.13;;;12.10;99.90;;;;;;4982738;28;20121;-76
2022/11/06 12:29:54;;;;;;;4.65;1.90;;;12.10;99.90;;;;;;4966377;28;20074;-76
2022/11/06 12:32:51;;;;;;;4.55;1.80;;;12.10;99.90;;;;;;4949578;28;20201;-75
2022/11/06 12:35:25;;;;;;;6.07;1.90;;;12.10;99.90;;;;;;4989692;28;20034;-75
2022/11/06 12:37:54;;;;;;;5.72;1.80;;;12.10;99.90;;;;;;4974197;28;20031;-76
2022/11/06 12:40:28;;;;;;;7.15;1.80;;;12.10;99.90;;;;;;4953077;28;20050;-76
2022/11/06 12:43:22;;;;;;;5.47;1.80;;;12.00;99.90;;;;;;4953469;29;20093;-75
2022/11/06 12:46:02;;;;;;;4.05;1.88;;;12.00;99.90;;;;;;4976081;28;20034;-76
2022/11/06 12:48:43;;;;;;;4.32;1.50;;;11.90;99.90;;;;;;4952846;29;20073;-75
2022/11/06 12:51:48;;;;;;;5.07;1.85;;;11.90;99.90;;;;;;4955395;28;20089;-76
2022/11/06 12:54:17;;;;;;;5.40;1.75;;;11.80;99.90;;;;;;4964158;28;20481;-76
2022/11/06 12:56:57;;;;;;;6.80;1.70;;;11.90;99.90;;;;;;4972244;28;20046;-75
2022/11/06 12:59:36;;;;;;;3.95;2.00;;;11.80;99.90;;;;;;4988480;28;20105;-75
2022/11/06 13:02:13;;;;;;;4.40;1.95;;;11.70;99.90;;;;;;4963607;28;20039;-75
2022/11/06 13:04:54;;;;;;;5.90;2.00;;;11.70;99.90;;;;;;4981488;28;20074;-75
2022/11/06 13:07:51;;;;;;;7.68;1.88;;;11.70;99.90;;;;;;4972287;28;20242;-76
2022/11/06 13:10:39;;;;;;;6.40;2.20;;;11.70;99.90;;;;;;4987766;28;20532;-76
2022/11/06 13:13:07;;;;;;;5.28;2.20;;;11.70;99.90;;;;;;4979280;28;20523;-75
2022/11/06 13:15:43;;;;;;;5.43;2.00;;;11.70;99.90;;;;;;4960524;28;20055;-76
2022/11/06 13:18:19;;;;;;;8.45;1.95;;;11.70;99.90;;;;;;4952605;29;20051;-75
2022/11/06 13:21:16;;;;;;;5.55;1.65;;;11.70;99.90;;;;;;4952485;28;20050;-76